sensor_id;sensor_type;location;lat;lon;timestamp;pressure;altitude;pressure_sealevel;temperature;humidity
7200;BME280;3641;49.082;8.200;2022-07-19T00:00:46;100554.75;;;22.49;43.88
7200;BME280;3641;49.082;8.200;2022-07-19T00:03:13;100560.50;;;22.43;47.82
7200;BME280;3641;49.082;8.200;2022-07-19T00:05:39;100557.56;;;22.10;45.40
7200;BME280;3641;49.082;8.200;2022-07-19T00:08:06;100552.38;;;22.19;47.26
7200;BME280;3641;49.082;8.200;2022-07-19T00:10:32;100550.47;;;22.20;44.77
7200;BME280;3641;49.082;8.200;2022-07-19T00:12:59;100555.34;;;22.29;45.79
7200;BME280;3641;49.082;8.200;2022-07-19T00:15:27;100568.75;;;22.33;44.71
7200;BME280;3641;49.082;8.200;2022-07-19T00:17:53;100564.25;;;22.31;43.89
7200;BME280;3641;49.082;8.200;2022-07-19T00:20:21;100565.19;;;22.37;43.51
7200;BME280;3641;49.082;8.200;2022-07-19T00:22:48;100563.59;;;22.24;43.61
7200;BME280;3641;49.082;8.200;2022-07-19T00:25:15;100566.91;;;22.21;44.69
7200;BME280;3641;49.082;8.200;2022-07-19T00:27:42;100576.31;;;22.20;44.56
7200;BME280;3641;49.082;8.200;2022-07-19T00:30:10;100564.38;;;22.20;44.30
7200;BME280;3641;49.082;8.200;2022-07-19T00:32:38;100564.63;;;22.18;45.13
7200;BME280;3641;49.082;8.200;2022-07-19T00:35:06;100560.47;;;22.21;45.18
7200;BME280;3641;49.082;8.200;2022-07-19T00:37:33;100553.75;;;22.17;44.70
7200;BME280;3641;49.082;8.200;2022-07-19T00:39:59;100556.19;;;21.91;46.09
7200;BME280;3641;49.082;8.200;2022-07-19T00:42:26;100552.97;;;21.99;45.59
7200;BME280;3641;49.082;8.200;2022-07-19T00:44:53;100559.53;;;21.93;45.20
7200;BME280;3641;49.082;8.200;2022-07-19T00:47:20;100555.03;;;21.70;46.60
7200;BME280;3641;49.082;8.200;2022-07-19T00:49:48;100556.34;;;21.16;48.09
7200;BME280;3641;49.082;8.200;2022-07-19T00:52:15;100554.94;;;21.31;45.85
7200;BME280;3641;49.082;8.200;2022-07-19T00:54:43;100563.53;;;21.46;45.72
7200;BME280;3641;49.082;8.200;2022-07-19T00:57:12;100560.13;;;21.44;45.17
7200;BME280;3641;49.082;8.200;2022-07-19T00:59:41;100559.41;;;21.49;44.26
7200;BME280;3641;49.082;8.200;2022-07-19T01:02:10;100563.94;;;21.21;45.26
7200;BME280;3641;49.082;8.200;2022-07-19T01:04:37;100548.53;;;21.30;44.47
7200;BME280;3641;49.082;8.200;2022-07-19T01:07:06;100540.22;;;21.30;45.83
7200;BME280;3641;49.082;8.200;2022-07-19T01:09:34;100554.56;;;21.10;44.88
7200;BME280;3641;49.082;8.200;2022-07-19T01:12:00;100555.56;;;21.04;45.66
7200;BME280;3641;49.082;8.200;2022-07-19T01:14:27;100552.00;;;21.20;44.34
7200;BME280;3641;49.082;8.200;2022-07-19T01:16:54;100548.53;;;21.13;46.66
7200;BME280;3641;49.082;8.200;2022-07-19T01:19:20;100554.31;;;21.12;44.43
7200;BME280;3641;49.082;8.200;2022-07-19T01:21:48;100552.13;;;21.14;45.99
7200;BME280;3641;49.082;8.200;2022-07-19T01:24:15;100553.31;;;21.18;45.05
7200;BME280;3641;49.082;8.200;2022-07-19T01:26:41;100558.88;;;21.18;45.17
7200;BME280;3641;49.082;8.200;2022-07-19T01:29:08;100558.28;;;21.16;46.56
7200;BME280;3641;49.082;8.200;2022-07-19T01:31:38;100561.31;;;21.14;45.90
7200;BME280;3641;49.082;8.200;2022-07-19T01:34:04;100560.13;;;21.10;46.64
7200;BME280;3641;49.082;8.200;2022-07-19T01:36:31;100556.81;;;20.96;45.20
7200;BME280;3641;49.082;8.200;2022-07-19T01:38:59;100556.84;;;21.13;44.13
7200;BME280;3641;49.082;8.200;2022-07-19T01:41:25;100552.88;;;21.09;45.42
7200;BME280;3641;49.082;8.200;2022-07-19T01:43:52;100544.72;;;21.02;44.42
7200;BME280;3641;49.082;8.200;2022-07-19T01:46:18;100549.44;;;21.02;44.92
7200;BME280;3641;49.082;8.200;2022-07-19T01:48:45;100549.78;;;21.05;44.36
7200;BME280;3641;49.082;8.200;2022-07-19T01:51:11;100537.88;;;20.93;46.42
7200;BME280;3641;49.082;8.200;2022-07-19T01:53:38;100544.97;;;20.84;48.03
7200;BME280;3641;49.082;8.200;2022-07-19T01:56:07;100540.16;;;20.96;47.17
7200;BME280;3641;49.082;8.200;2022-07-19T01:58:33;100537.38;;;20.96;45.90
7200;BME280;3641;49.082;8.200;2022-07-19T02:01:00;100528.47;;;20.94;46.10
7200;BME280;3641;49.082;8.200;2022-07-19T02:03:27;100529.53;;;20.76;46.82
7200;BME280;3641;49.082;8.200;2022-07-19T02:05:53;100529.53;;;20.76;48.02
7200;BME280;3641;49.082;8.200;2022-07-19T02:08:20;100533.38;;;20.46;50.70
7200;BME280;3641;49.082;8.200;2022-07-19T02:10:47;100529.28;;;20.37;52.75
7200;BME280;3641;49.082;8.200;2022-07-19T02:13:15;100525.25;;;20.57;48.08
7200;BME280;3641;49.082;8.200;2022-07-19T02:15:41;100523.06;;;20.18;52.49
7200;BME280;3641;49.082;8.200;2022-07-19T02:18:08;100528.91;;;20.45;47.76
7200;BME280;3641;49.082;8.200;2022-07-19T02:20:34;100529.03;;;20.50;47.64
7200;BME280;3641;49.082;8.200;2022-07-19T02:23:01;100529.41;;;20.42;47.92
7200;BME280;3641;49.082;8.200;2022-07-19T02:25:27;100522.25;;;20.58;47.16
7200;BME280;3641;49.082;8.200;2022-07-19T02:27:54;100526.50;;;20.49;48.36
7200;BME280;3641;49.082;8.200;2022-07-19T02:30:22;100524.06;;;20.53;49.04
7200;BME280;3641;49.082;8.200;2022-07-19T02:32:48;100520.78;;;20.56;48.09
7200;BME280;3641;49.082;8.200;2022-07-19T02:35:15;100516.00;;;20.51;47.89
7200;BME280;3641;49.082;8.200;2022-07-19T02:37:42;100512.22;;;20.57;46.93
7200;BME280;3641;49.082;8.200;2022-07-19T02:40:08;100523.34;;;20.45;46.61
7200;BME280;3641;49.082;8.200;2022-07-19T02:42:35;100520.47;;;20.40;46.31
7200;BME280;3641;49.082;8.200;2022-07-19T02:45:02;100517.47;;;20.42;46.65
7200;BME280;3641;49.082;8.200;2022-07-19T02:47:30;100520.00;;;20.43;45.82
7200;BME280;3641;49.082;8.200;2022-07-19T02:49:57;100513.16;;;19.93;49.99
7200;BME280;3641;49.082;8.200;2022-07-19T02:52:23;100506.34;;;20.13;46.63
7200;BME280;3641;49.082;8.200;2022-07-19T02:54:50;100512.16;;;20.40;45.60
7200;BME280;3641;49.082;8.200;2022-07-19T02:57:16;100516.81;;;20.51;45.54
7200;BME280;3641;49.082;8.200;2022-07-19T02:59:43;100516.31;;;20.55;44.88
7200;BME280;3641;49.082;8.200;2022-07-19T03:02:09;100523.56;;;20.27;45.91
7200;BME280;3641;49.082;8.200;2022-07-19T03:04:37;100526.66;;;20.30;45.63
7200;BME280;3641;49.082;8.200;2022-07-19T03:07:03;100518.59;;;20.29;45.52
7200;BME280;3641;49.082;8.200;2022-07-19T03:09:30;100524.44;;;20.04;47.49
7200;BME280;3641;49.082;8.200;2022-07-19T03:11:56;100518.34;;;19.90;46.62
7200;BME280;3641;49.082;8.200;2022-07-19T03:14:23;100523.97;;;19.95;46.41
7200;BME280;3641;49.082;8.200;2022-07-19T03:16:49;100519.38;;;20.01;45.74
7200;BME280;3641;49.082;8.200;2022-07-19T03:19:16;100520.44;;;20.11;45.69
7200;BME280;3641;49.082;8.200;2022-07-19T03:21:44;100518.53;;;20.12;45.47
7200;BME280;3641;49.082;8.200;2022-07-19T03:24:10;100515.53;;;20.02;46.72
7200;BME280;3641;49.082;8.200;2022-07-19T03:26:37;100519.84;;;20.09;46.17
7200;BME280;3641;49.082;8.200;2022-07-19T03:29:03;100526.34;;;20.15;46.02
7200;BME280;3641;49.082;8.200;2022-07-19T03:31:30;100526.97;;;20.17;45.34
7200;BME280;3641;49.082;8.200;2022-07-19T03:33:56;100527.31;;;20.21;45.28
7200;BME280;3641;49.082;8.200;2022-07-19T03:36:23;100522.97;;;20.13;45.02
7200;BME280;3641;49.082;8.200;2022-07-19T03:38:50;100528.78;;;20.00;46.03
7200;BME280;3641;49.082;8.200;2022-07-19T03:41:17;100532.53;;;19.58;50.08
7200;BME280;3641;49.082;8.200;2022-07-19T03:43:43;100532.50;;;19.46;48.65
7200;BME280;3641;49.082;8.200;2022-07-19T03:46:10;100528.31;;;19.55;48.21
7200;BME280;3641;49.082;8.200;2022-07-19T03:48:36;100531.09;;;19.79;47.06
7200;BME280;3641;49.082;8.200;2022-07-19T03:51:03;100527.19;;;20.04;45.66
7200;BME280;3641;49.082;8.200;2022-07-19T03:53:30;100529.50;;;20.07;45.21
7200;BME280;3641;49.082;8.200;2022-07-19T03:55:57;100533.47;;;20.11;45.50
7200;BME280;3641;49.082;8.200;2022-07-19T03:58:24;100533.22;;;20.12;46.34
7200;BME280;3641;49.082;8.200;2022-07-19T04:00:51;100536.25;;;20.11;45.43
7200;BME280;3641;49.082;8.200;2022-07-19T04:03:18;100541.09;;;19.56;49.95
7200;BME280;3641;49.082;8.200;2022-07-19T04:05:44;100536.28;;;19.87;45.95
7200;BME280;3641;49.082;8.200;2022-07-19T04:08:11;100541.31;;;20.14;45.36
7200;BME280;3641;49.082;8.200;2022-07-19T04:10:37;100539.25;;;20.09;47.91
7200;BME280;3641;49.082;8.200;2022-07-19T04:13:05;100545.38;;;20.11;45.98
7200;BME280;3641;49.082;8.200;2022-07-19T04:15:32;100533.09;;;20.19;45.41
7200;BME280;3641;49.082;8.200;2022-07-19T04:17:58;100541.88;;;20.16;45.26
7200;BME280;3641;49.082;8.200;2022-07-19T04:20:25;100532.97;;;20.14;46.66
7200;BME280;3641;49.082;8.200;2022-07-19T04:22:52;100539.16;;;20.04;46.00
7200;BME280;3641;49.082;8.200;2022-07-19T04:25:19;100529.72;;;20.05;46.59
7200;BME280;3641;49.082;8.200;2022-07-19T04:27:45;100536.97;;;20.06;46.37
7200;BME280;3641;49.082;8.200;2022-07-19T04:30:13;100534.31;;;20.11;46.10
7200;BME280;3641;49.082;8.200;2022-07-19T04:32:40;100539.59;;;20.13;45.71
7200;BME280;3641;49.082;8.200;2022-07-19T04:35:07;100540.97;;;20.10;45.80
7200;BME280;3641;49.082;8.200;2022-07-19T04:37:34;100537.59;;;19.96;46.21
7200;BME280;3641;49.082;8.200;2022-07-19T04:40:00;100532.91;;;19.85;46.53
7200;BME280;3641;49.082;8.200;2022-07-19T04:42:27;100539.38;;;20.14;45.90
7200;BME280;3641;49.082;8.200;2022-07-19T04:44:53;100545.97;;;20.13;46.25
7200;BME280;3641;49.082;8.200;2022-07-19T04:47:21;100542.47;;;20.18;45.40
7200;BME280;3641;49.082;8.200;2022-07-19T04:49:48;100538.91;;;20.06;48.57
7200;BME280;3641;49.082;8.200;2022-07-19T04:52:14;100543.38;;;19.83;49.11
7200;BME280;3641;49.082;8.200;2022-07-19T04:54:41;100541.66;;;19.70;50.08
7200;BME280;3641;49.082;8.200;2022-07-19T04:57:07;100547.09;;;19.53;50.48
7200;BME280;3641;49.082;8.200;2022-07-19T04:59:34;100551.56;;;19.66;48.02
7200;BME280;3641;49.082;8.200;2022-07-19T05:02:00;100548.16;;;20.11;45.86
7200;BME280;3641;49.082;8.200;2022-07-19T05:04:28;100547.78;;;20.20;48.71
7200;BME280;3641;49.082;8.200;2022-07-19T05:06:55;100547.44;;;20.16;46.31
7200;BME280;3641;49.082;8.200;2022-07-19T05:09:23;100548.59;;;20.32;45.46
7200;BME280;3641;49.082;8.200;2022-07-19T05:11:50;100550.94;;;20.23;48.84
7200;BME280;3641;49.082;8.200;2022-07-19T05:14:17;100541.22;;;19.85;49.76
7200;BME280;3641;49.082;8.200;2022-07-19T05:16:44;100535.44;;;19.87;49.00
7200;BME280;3641;49.082;8.200;2022-07-19T05:19:10;100540.84;;;19.93;49.97
7200;BME280;3641;49.082;8.200;2022-07-19T05:21:38;100540.47;;;20.02;48.94
7200;BME280;3641;49.082;8.200;2022-07-19T05:24:05;100540.38;;;19.96;49.98
7200;BME280;3641;49.082;8.200;2022-07-19T05:26:32;100537.00;;;19.94;50.63
7200;BME280;3641;49.082;8.200;2022-07-19T05:28:59;100541.31;;;20.14;49.58
7200;BME280;3641;49.082;8.200;2022-07-19T05:31:25;100552.09;;;20.39;46.58
7200;BME280;3641;49.082;8.200;2022-07-19T05:33:52;100544.50;;;20.35;48.77
7200;BME280;3641;49.082;8.200;2022-07-19T05:36:18;100545.25;;;20.30;50.16
7200;BME280;3641;49.082;8.200;2022-07-19T05:38:46;100543.41;;;20.36;49.98
7200;BME280;3641;49.082;8.200;2022-07-19T05:41:13;100551.34;;;20.44;50.05
7200;BME280;3641;49.082;8.200;2022-07-19T05:43:41;100540.38;;;20.49;50.25
7200;BME280;3641;49.082;8.200;2022-07-19T05:46:09;100538.88;;;20.58;49.68
7200;BME280;3641;49.082;8.200;2022-07-19T05:48:35;100542.97;;;20.56;49.69
7200;BME280;3641;49.082;8.200;2022-07-19T05:51:02;100547.75;;;20.72;49.36
7200;BME280;3641;49.082;8.200;2022-07-19T05:53:28;100546.78;;;20.78;49.40
7200;BME280;3641;49.082;8.200;2022-07-19T05:55:56;100548.09;;;20.76;49.43
7200;BME280;3641;49.082;8.200;2022-07-19T05:58:23;100547.06;;;20.94;48.81
7200;BME280;3641;49.082;8.200;2022-07-19T06:00:50;100550.88;;;21.04;48.49
7200;BME280;3641;49.082;8.200;2022-07-19T06:03:31;100543.56;;;21.32;45.82
7200;BME280;3641;49.082;8.200;2022-07-19T06:05:58;100544.69;;;21.48;45.51
7200;BME280;3641;49.082;8.200;2022-07-19T06:08:24;100546.28;;;21.61;46.18
7200;BME280;3641;49.082;8.200;2022-07-19T06:10:51;100546.03;;;21.80;47.06
7200;BME280;3641;49.082;8.200;2022-07-19T06:13:19;100549.06;;;22.00;46.44
7200;BME280;3641;49.082;8.200;2022-07-19T06:15:46;100554.28;;;22.13;45.91
7200;BME280;3641;49.082;8.200;2022-07-19T06:18:13;100551.06;;;22.44;45.68
7200;BME280;3641;49.082;8.200;2022-07-19T06:20:39;100558.63;;;22.98;44.64
7200;BME280;3641;49.082;8.200;2022-07-19T06:23:06;100562.56;;;23.29;45.85
7200;BME280;3641;49.082;8.200;2022-07-19T06:25:32;100556.66;;;24.54;41.38
7200;BME280;3641;49.082;8.200;2022-07-19T06:27:59;100557.97;;;27.17;35.71
7200;BME280;3641;49.082;8.200;2022-07-19T06:30:27;100558.53;;;28.98;32.77
7200;BME280;3641;49.082;8.200;2022-07-19T06:32:53;100552.72;;;28.52;33.25
7200;BME280;3641;49.082;8.200;2022-07-19T06:35:20;100546.88;;;28.24;35.14
7200;BME280;3641;49.082;8.200;2022-07-19T06:37:47;100547.59;;;28.11;34.98
7200;BME280;3641;49.082;8.200;2022-07-19T06:40:13;100551.06;;;28.02;35.69
7200;BME280;3641;49.082;8.200;2022-07-19T06:42:40;100556.81;;;27.58;36.52
7200;BME280;3641;49.082;8.200;2022-07-19T06:45:07;100554.84;;;26.08;38.30
7200;BME280;3641;49.082;8.200;2022-07-19T06:47:35;100557.41;;;25.02;40.14
7200;BME280;3641;49.082;8.200;2022-07-19T06:50:02;100554.69;;;24.49;41.60
7200;BME280;3641;49.082;8.200;2022-07-19T06:52:28;100560.97;;;24.19;41.79
7200;BME280;3641;49.082;8.200;2022-07-19T06:54:55;100557.78;;;23.94;42.21
7200;BME280;3641;49.082;8.200;2022-07-19T06:57:21;100556.66;;;23.90;42.17
7200;BME280;3641;49.082;8.200;2022-07-19T06:59:48;100553.47;;;23.82;42.71
7200;BME280;3641;49.082;8.200;2022-07-19T07:02:14;100553.41;;;23.66;42.13
7200;BME280;3641;49.082;8.200;2022-07-19T07:04:42;100550.81;;;23.60;42.94
7200;BME280;3641;49.082;8.200;2022-07-19T07:07:09;100561.78;;;23.71;42.48
7200;BME280;3641;49.082;8.200;2022-07-19T07:09:35;100562.63;;;23.72;42.88
7200;BME280;3641;49.082;8.200;2022-07-19T07:12:02;100553.69;;;23.70;42.72
7200;BME280;3641;49.082;8.200;2022-07-19T07:14:28;100559.72;;;23.56;43.00
7200;BME280;3641;49.082;8.200;2022-07-19T07:16:55;100555.59;;;23.64;42.52
7200;BME280;3641;49.082;8.200;2022-07-19T07:19:21;100550.63;;;23.66;42.70
7200;BME280;3641;49.082;8.200;2022-07-19T07:21:49;100553.16;;;23.73;42.65
7200;BME280;3641;49.082;8.200;2022-07-19T07:24:16;100547.34;;;23.80;42.38
7200;BME280;3641;49.082;8.200;2022-07-19T07:26:42;100559.69;;;23.84;42.29
7200;BME280;3641;49.082;8.200;2022-07-19T07:29:09;100546.06;;;23.92;41.86
7200;BME280;3641;49.082;8.200;2022-07-19T07:31:35;100549.13;;;23.91;42.49
7200;BME280;3641;49.082;8.200;2022-07-19T07:34:02;100548.31;;;23.96;42.06
7200;BME280;3641;49.082;8.200;2022-07-19T07:36:29;100552.28;;;24.05;42.03
7200;BME280;3641;49.082;8.200;2022-07-19T07:38:57;100544.47;;;24.07;41.72
7200;BME280;3641;49.082;8.200;2022-07-19T07:41:23;100549.22;;;24.06;41.71
7200;BME280;3641;49.082;8.200;2022-07-19T07:43:50;100545.69;;;24.32;40.87
7200;BME280;3641;49.082;8.200;2022-07-19T07:46:16;100545.75;;;24.47;40.95
7200;BME280;3641;49.082;8.200;2022-07-19T07:48:43;100540.19;;;24.52;40.80
7200;BME280;3641;49.082;8.200;2022-07-19T07:51:09;100540.47;;;24.51;41.13
7200;BME280;3641;49.082;8.200;2022-07-19T07:53:36;100533.28;;;24.60;40.82
7200;BME280;3641;49.082;8.200;2022-07-19T07:56:04;100527.47;;;24.77;40.27
7200;BME280;3641;49.082;8.200;2022-07-19T07:58:31;100533.03;;;24.72;40.35
7200;BME280;3641;49.082;8.200;2022-07-19T08:00:57;100525.75;;;24.65;41.16
7200;BME280;3641;49.082;8.200;2022-07-19T08:03:25;100522.16;;;24.75;40.71
7200;BME280;3641;49.082;8.200;2022-07-19T08:05:51;100518.53;;;24.95;40.37
7200;BME280;3641;49.082;8.200;2022-07-19T08:08:18;100521.06;;;25.17;39.98
7200;BME280;3641;49.082;8.200;2022-07-19T08:10:45;100513.25;;;24.99;40.41
7200;BME280;3641;49.082;8.200;2022-07-19T08:13:13;100522.47;;;25.05;40.81
7200;BME280;3641;49.082;8.200;2022-07-19T08:15:39;100512.69;;;25.12;40.42
7200;BME280;3641;49.082;8.200;2022-07-19T08:18:06;100513.84;;;25.16;40.84
7200;BME280;3641;49.082;8.200;2022-07-19T08:20:32;100518.59;;;25.36;39.92
7200;BME280;3641;49.082;8.200;2022-07-19T08:22:59;100504.34;;;25.33;40.18
7200;BME280;3641;49.082;8.200;2022-07-19T08:25:25;100506.03;;;25.39;40.07
7200;BME280;3641;49.082;8.200;2022-07-19T08:27:52;100510.50;;;25.45;40.53
7200;BME280;3641;49.082;8.200;2022-07-19T08:30:20;100500.38;;;25.80;39.12
7200;BME280;3641;49.082;8.200;2022-07-19T08:32:46;100507.03;;;25.89;39.35
7200;BME280;3641;49.082;8.200;2022-07-19T08:35:13;100502.56;;;25.88;39.70
7200;BME280;3641;49.082;8.200;2022-07-19T08:37:39;100503.69;;;25.87;39.50
7200;BME280;3641;49.082;8.200;2022-07-19T08:40:07;100498.09;;;25.87;39.56
7200;BME280;3641;49.082;8.200;2022-07-19T08:42:34;100500.25;;;26.26;38.89
7200;BME280;3641;49.082;8.200;2022-07-19T08:45:03;100500.16;;;26.37;38.57
7200;BME280;3641;49.082;8.200;2022-07-19T08:47:32;100499.66;;;26.24;39.00
7200;BME280;3641;49.082;8.200;2022-07-19T08:49:59;100497.41;;;26.32;39.02
7200;BME280;3641;49.082;8.200;2022-07-19T08:52:26;100503.31;;;26.25;39.28
7200;BME280;3641;49.082;8.200;2022-07-19T08:54:54;100502.31;;;26.50;38.99
7200;BME280;3641;49.082;8.200;2022-07-19T08:57:21;100508.53;;;26.97;37.88
7200;BME280;3641;49.082;8.200;2022-07-19T09:00:06;100504.66;;;26.88;37.42
7200;BME280;3641;49.082;8.200;2022-07-19T09:02:34;100501.19;;;27.01;37.47
7200;BME280;3641;49.082;8.200;2022-07-19T09:05:01;100494.22;;;27.33;36.85
7200;BME280;3641;49.082;8.200;2022-07-19T09:07:30;100488.88;;;27.66;36.87
7200;BME280;3641;49.082;8.200;2022-07-19T09:10:15;100497.13;;;27.52;37.10
7200;BME280;3641;49.082;8.200;2022-07-19T09:12:59;100500.34;;;27.94;36.24
7200;BME280;3641;49.082;8.200;2022-07-19T09:15:36;100498.25;;;27.80;36.23
7200;BME280;3641;49.082;8.200;2022-07-19T09:18:08;100498.75;;;27.58;37.07
7200;BME280;3641;49.082;8.200;2022-07-19T09:20:36;100501.34;;;27.79;37.00
7200;BME280;3641;49.082;8.200;2022-07-19T09:23:03;100502.09;;;28.14;34.70
7200;BME280;3641;49.082;8.200;2022-07-19T09:25:35;100500.41;;;28.13;34.63
7200;BME280;3641;49.082;8.200;2022-07-19T09:28:02;100490.19;;;28.22;35.38
7200;BME280;3641;49.082;8.200;2022-07-19T09:30:33;100495.59;;;28.18;35.69
7200;BME280;3641;49.082;8.200;2022-07-19T09:33:12;100491.53;;;28.05;35.20
7200;BME280;3641;49.082;8.200;2022-07-19T09:35:41;100491.66;;;28.38;34.58
7200;BME280;3641;49.082;8.200;2022-07-19T09:38:17;100485.22;;;28.38;33.91
7200;BME280;3641;49.082;8.200;2022-07-19T09:40:43;100487.16;;;28.80;32.85
7200;BME280;3641;49.082;8.200;2022-07-19T09:43:10;100480.09;;;28.83;33.55
7200;BME280;3641;49.082;8.200;2022-07-19T09:45:36;100480.34;;;28.68;33.54
7200;BME280;3641;49.082;8.200;2022-07-19T09:48:04;100471.03;;;29.05;32.66
7200;BME280;3641;49.082;8.200;2022-07-19T09:50:32;100467.16;;;29.20;31.79
7200;BME280;3641;49.082;8.200;2022-07-19T09:53:01;100466.69;;;29.13;32.53
7200;BME280;3641;49.082;8.200;2022-07-19T09:55:28;100453.34;;;29.05;32.79
7200;BME280;3641;49.082;8.200;2022-07-19T09:57:56;100456.38;;;29.41;32.34
7200;BME280;3641;49.082;8.200;2022-07-19T10:00:25;100455.44;;;29.46;31.87
7200;BME280;3641;49.082;8.200;2022-07-19T10:02:53;100455.84;;;29.39;32.07
7200;BME280;3641;49.082;8.200;2022-07-19T10:05:20;100455.19;;;30.03;30.50
7200;BME280;3641;49.082;8.200;2022-07-19T10:07:49;100451.81;;;30.29;29.57
7200;BME280;3641;49.082;8.200;2022-07-19T10:10:17;100444.00;;;30.25;29.41
7200;BME280;3641;49.082;8.200;2022-07-19T10:12:46;100446.09;;;30.20;30.05
7200;BME280;3641;49.082;8.200;2022-07-19T10:15:14;100440.25;;;30.30;29.73
7200;BME280;3641;49.082;8.200;2022-07-19T10:17:52;100434.50;;;30.35;28.94
7200;BME280;3641;49.082;8.200;2022-07-19T10:20:22;100441.44;;;30.88;28.75
7200;BME280;3641;49.082;8.200;2022-07-19T10:22:51;100440.44;;;31.07;27.92
7200;BME280;3641;49.082;8.200;2022-07-19T10:25:19;100429.97;;;30.85;27.87
7200;BME280;3641;49.082;8.200;2022-07-19T10:27:50;100427.78;;;30.59;29.59
7200;BME280;3641;49.082;8.200;2022-07-19T10:30:24;100419.34;;;31.58;27.23
7200;BME280;3641;49.082;8.200;2022-07-19T10:32:55;100419.47;;;31.30;27.80
7200;BME280;3641;49.082;8.200;2022-07-19T10:35:23;100416.88;;;31.34;26.93
7200;BME280;3641;49.082;8.200;2022-07-19T10:37:57;100414.94;;;31.43;26.84
7200;BME280;3641;49.082;8.200;2022-07-19T10:40:37;100410.59;;;31.37;25.12
7200;BME280;3641;49.082;8.200;2022-07-19T10:43:04;100401.59;;;31.35;28.31
7200;BME280;3641;49.082;8.200;2022-07-19T10:45:31;100394.00;;;31.84;24.77
7200;BME280;3641;49.082;8.200;2022-07-19T10:50:57;100399.97;;;31.83;24.79
7200;BME280;3641;49.082;8.200;2022-07-19T10:53:58;100390.47;;;32.45;25.50
7200;BME280;3641;49.082;8.200;2022-07-19T10:56:56;100388.78;;;32.18;24.02
7200;BME280;3641;49.082;8.200;2022-07-19T10:59:39;100380.63;;;32.08;25.65
7200;BME280;3641;49.082;8.200;2022-07-19T11:02:06;100369.81;;;32.01;24.43
7200;BME280;3641;49.082;8.200;2022-07-19T11:04:34;100369.53;;;32.29;26.40
7200;BME280;3641;49.082;8.200;2022-07-19T11:07:21;100363.06;;;32.46;24.05
7200;BME280;3641;49.082;8.200;2022-07-19T11:09:52;100363.06;;;32.28;24.46
7200;BME280;3641;49.082;8.200;2022-07-19T11:12:24;100355.03;;;32.56;23.49
7200;BME280;3641;49.082;8.200;2022-07-19T11:14:51;100350.25;;;32.74;24.50
7200;BME280;3641;49.082;8.200;2022-07-19T11:17:18;100340.91;;;32.83;24.44
7200;BME280;3641;49.082;8.200;2022-07-19T11:20:04;100340.59;;;32.75;24.08
7200;BME280;3641;49.082;8.200;2022-07-19T11:22:36;100345.09;;;32.33;25.29
7200;BME280;3641;49.082;8.200;2022-07-19T11:25:06;100331.44;;;32.44;23.63
7200;BME280;3641;49.082;8.200;2022-07-19T11:27:33;100331.44;;;32.79;23.33
7200;BME280;3641;49.082;8.200;2022-07-19T11:30:02;100340.47;;;32.63;23.72
7200;BME280;3641;49.082;8.200;2022-07-19T11:32:30;100316.47;;;32.78;22.62
7200;BME280;3641;49.082;8.200;2022-07-19T11:34:59;100318.81;;;32.76;23.70
7200;BME280;3641;49.082;8.200;2022-07-19T11:37:28;100323.63;;;32.75;22.67
7200;BME280;3641;49.082;8.200;2022-07-19T11:39:55;100327.25;;;32.85;23.63
7200;BME280;3641;49.082;8.200;2022-07-19T11:42:32;100326.25;;;32.89;25.46
7200;BME280;3641;49.082;8.200;2022-07-19T11:45:07;100323.75;;;32.88;23.67
7200;BME280;3641;49.082;8.200;2022-07-19T11:47:33;100316.94;;;32.89;22.40
7200;BME280;3641;49.082;8.200;2022-07-19T11:50:04;100316.66;;;33.29;23.07
7200;BME280;3641;49.082;8.200;2022-07-19T11:52:41;100306.53;;;33.10;24.92
7200;BME280;3641;49.082;8.200;2022-07-19T11:55:09;100314.75;;;33.42;22.03
7200;BME280;3641;49.082;8.200;2022-07-19T11:57:37;100315.19;;;33.14;23.23
7200;BME280;3641;49.082;8.200;2022-07-19T12:00:05;100303.13;;;33.35;21.29
7200;BME280;3641;49.082;8.200;2022-07-19T12:05:33;100301.03;;;33.23;22.34
7200;BME280;3641;49.082;8.200;2022-07-19T12:08:02;100299.53;;;33.25;22.36
7200;BME280;3641;49.082;8.200;2022-07-19T12:10:40;100294.50;;;33.91;21.56
7200;BME280;3641;49.082;8.200;2022-07-19T12:13:10;100293.47;;;33.65;21.88
7200;BME280;3641;49.082;8.200;2022-07-19T12:15:51;100282.97;;;33.66;21.37
7200;BME280;3641;49.082;8.200;2022-07-19T12:18:20;100291.03;;;33.55;21.72
7200;BME280;3641;49.082;8.200;2022-07-19T12:21:17;100296.66;;;33.64;22.79
7200;BME280;3641;49.082;8.200;2022-07-19T12:26:53;100286.63;;;33.66;21.38
7200;BME280;3641;49.082;8.200;2022-07-19T12:29:24;100278.44;;;33.44;21.81
7200;BME280;3641;49.082;8.200;2022-07-19T12:31:52;100280.88;;;33.84;20.73
7200;BME280;3641;49.082;8.200;2022-07-19T12:34:20;100284.72;;;33.79;21.32
7200;BME280;3641;49.082;8.200;2022-07-19T12:36:46;100274.81;;;33.73;21.25
7200;BME280;3641;49.082;8.200;2022-07-19T12:39:18;100270.44;;;33.97;20.67
7200;BME280;3641;49.082;8.200;2022-07-19T12:42:05;100268.25;;;33.81;21.15
7200;BME280;3641;49.082;8.200;2022-07-19T12:44:34;100274.19;;;33.89;21.23
7200;BME280;3641;49.082;8.200;2022-07-19T12:47:01;100257.47;;;33.75;21.46
7200;BME280;3641;49.082;8.200;2022-07-19T12:49:40;100260.44;;;33.78;20.61
7200;BME280;3641;49.082;8.200;2022-07-19T12:52:07;100269.69;;;34.09;24.43
7200;BME280;3641;49.082;8.200;2022-07-19T12:54:36;100265.19;;;34.29;19.28
7200;BME280;3641;49.082;8.200;2022-07-19T12:57:03;100268.50;;;34.10;21.09
7200;BME280;3641;49.082;8.200;2022-07-19T12:59:29;100264.22;;;33.82;21.07
7200;BME280;3641;49.082;8.200;2022-07-19T13:02:10;100259.31;;;34.13;21.25
7200;BME280;3641;49.082;8.200;2022-07-19T13:04:38;100250.41;;;33.81;21.19
7200;BME280;3641;49.082;8.200;2022-07-19T13:07:05;100247.09;;;34.21;20.82
7200;BME280;3641;49.082;8.200;2022-07-19T13:09:32;100239.72;;;34.41;20.61
7200;BME280;3641;49.082;8.200;2022-07-19T13:11:59;100251.66;;;34.13;22.96
7200;BME280;3641;49.082;8.200;2022-07-19T13:14:25;100246.50;;;33.94;23.12
7200;BME280;3641;49.082;8.200;2022-07-19T13:16:52;100241.16;;;33.93;21.07
7200;BME280;3641;49.082;8.200;2022-07-19T13:19:20;100237.25;;;34.18;20.70
7200;BME280;3641;49.082;8.200;2022-07-19T13:21:46;100231.31;;;34.11;20.94
7200;BME280;3641;49.082;8.200;2022-07-19T13:24:13;100238.97;;;34.32;20.85